createdAt,value
2017-11-05T00:01:25.805Z,3.70
2017-11-05T00:03:53.359Z,3.70
2017-11-05T00:06:21.649Z,3.80
2017-11-05T00:08:49.960Z,3.90
2017-11-05T00:11:17.553Z,3.90
2017-11-05T00:13:45.100Z,4.00
2017-11-05T00:16:12.631Z,4.10
2017-11-05T00:18:40.941Z,4.30
2017-11-05T00:21:08.463Z,4.30
2017-11-05T00:23:36.016Z,4.40
2017-11-05T00:26:03.543Z,4.60
2017-11-05T00:28:31.092Z,4.60
2017-11-05T00:30:58.615Z,4.60
2017-11-05T00:33:26.143Z,4.60
2017-11-05T00:35:53.686Z,4.60
2017-11-05T00:38:21.224Z,4.60
2017-11-05T00:40:49.532Z,4.60
2017-11-05T00:43:17.058Z,4.70
2017-11-05T00:45:45.371Z,4.80
2017-11-05T00:48:12.900Z,4.80
2017-11-05T00:50:41.215Z,4.90
2017-11-05T00:53:08.743Z,4.90
2017-11-05T00:55:37.061Z,4.90
2017-11-05T00:58:04.586Z,4.90
2017-11-05T01:00:32.911Z,5.10
2017-11-05T01:03:00.439Z,5.00
2017-11-05T01:05:27.984Z,5.10
2017-11-05T01:07:56.284Z,5.10
2017-11-05T01:10:23.834Z,5.10
2017-11-05T01:12:52.120Z,5.20
2017-11-05T01:15:19.679Z,5.20
2017-11-05T01:17:47.975Z,5.30
2017-11-05T01:20:15.519Z,5.30
2017-11-05T01:22:43.811Z,5.40
2017-11-05T01:25:11.355Z,5.40
2017-11-05T01:27:39.638Z,5.40
2017-11-05T01:30:07.950Z,5.40
2017-11-05T01:32:35.497Z,5.40
2017-11-05T01:35:03.042Z,5.50
2017-11-05T01:37:31.336Z,5.50
2017-11-05T01:39:58.886Z,5.50
2017-11-05T01:42:27.177Z,5.50
2017-11-05T01:44:55.494Z,5.50
2017-11-05T01:47:23.020Z,5.50
2017-11-05T01:49:51.327Z,5.60
2017-11-05T01:52:18.855Z,5.60
2017-11-05T01:54:47.168Z,5.70
2017-11-05T01:57:14.696Z,5.70
2017-11-05T01:59:43.015Z,5.80
2017-11-05T02:02:10.544Z,5.80
2017-11-05T02:04:38.105Z,5.90
2017-11-05T02:07:05.640Z,5.90
2017-11-05T02:09:33.186Z,6.00
2017-11-05T02:12:00.714Z,6.00
2017-11-05T02:14:28.271Z,6.00
2017-11-05T02:16:55.800Z,6.10
2017-11-05T02:19:24.130Z,6.30
2017-11-05T02:21:51.662Z,6.30
2017-11-05T02:24:19.987Z,6.50
2017-11-05T02:26:47.514Z,6.50
2017-11-05T02:29:15.834Z,6.60
2017-11-05T02:31:43.364Z,6.50
2017-11-05T02:34:11.701Z,6.50
2017-11-05T02:36:39.231Z,6.50
2017-11-05T02:39:06.776Z,6.60
2017-11-05T02:41:34.304Z,6.70
2017-11-05T02:44:01.847Z,6.70
2017-11-05T02:46:29.403Z,6.70
2017-11-05T02:48:56.932Z,6.70
2017-11-05T02:51:24.488Z,6.80
2017-11-05T02:53:52.017Z,6.80
2017-11-05T02:56:19.562Z,6.90
2017-11-05T02:58:47.096Z,6.90
2017-11-05T03:01:14.641Z,6.90
2017-11-05T03:03:42.931Z,6.90
2017-11-05T03:06:10.479Z,6.90
2017-11-05T03:08:38.770Z,7.10
2017-11-05T03:11:06.329Z,7.10
2017-11-05T03:13:34.631Z,7.10
2017-11-05T03:16:02.179Z,7.00
2017-11-05T03:18:29.719Z,7.10
2017-11-05T03:20:57.267Z,7.20
2017-11-05T03:23:24.797Z,7.20
2017-11-05T03:25:52.361Z,7.30
2017-11-05T03:28:19.894Z,7.20
2017-11-05T03:30:48.216Z,7.20
2017-11-05T03:33:15.745Z,7.20
2017-11-05T03:35:44.059Z,7.10
2017-11-05T03:38:11.587Z,7.10
2017-11-05T03:40:39.907Z,7.20
2017-11-05T03:43:08.314Z,7.20
2017-11-05T03:45:35.864Z,7.20
2017-11-05T03:48:03.400Z,7.20
2017-11-05T03:50:30.951Z,7.10
2017-11-05T03:52:58.470Z,7.10
2017-11-05T03:55:26.015Z,7.20
2017-11-05T03:57:53.540Z,7.10
2017-11-05T04:00:21.089Z,7.10
2017-11-05T04:02:49.388Z,7.20
2017-11-05T04:05:16.937Z,7.10
2017-11-05T04:07:45.243Z,7.10
2017-11-05T04:10:12.791Z,7.10
2017-11-05T04:12:40.316Z,7.10
2017-11-05T04:15:07.866Z,7.20
2017-11-05T04:17:35.386Z,7.20
2017-11-05T04:20:02.928Z,7.20
2017-11-05T04:22:30.460Z,7.20
2017-11-05T04:24:58.008Z,7.20
2017-11-05T04:27:25.544Z,7.20
2017-11-05T04:29:53.090Z,7.10
2017-11-05T04:32:21.383Z,7.20
2017-11-05T04:34:48.923Z,7.10
2017-11-05T04:37:17.219Z,7.20
2017-11-05T04:39:44.788Z,7.20
2017-11-05T04:42:12.320Z,7.20
2017-11-05T04:44:39.863Z,7.20
2017-11-05T04:47:07.396Z,7.20
2017-11-05T04:49:34.958Z,7.20
2017-11-05T04:52:02.492Z,7.20
2017-11-05T04:54:30.792Z,7.20
2017-11-05T04:56:58.336Z,7.20
2017-11-05T04:59:26.630Z,7.20
2017-11-05T05:01:54.946Z,7.20
2017-11-05T05:04:22.472Z,7.20
2017-11-05T05:06:50.783Z,7.30
2017-11-05T05:09:18.312Z,7.20
2017-11-05T05:11:46.628Z,7.20
2017-11-05T05:14:14.154Z,7.20
2017-11-05T05:16:42.471Z,7.30
2017-11-05T05:19:10.008Z,7.30
2017-11-05T05:21:37.554Z,7.30
2017-11-05T05:24:05.848Z,7.30
2017-11-05T05:26:33.396Z,7.30
2017-11-05T05:29:01.693Z,7.40
2017-11-05T05:31:29.242Z,7.30
2017-11-05T05:33:57.534Z,7.30
2017-11-05T05:36:25.074Z,7.20
2017-11-05T05:38:53.370Z,7.30
2017-11-05T05:41:20.929Z,7.30
2017-11-05T05:43:49.219Z,7.30
2017-11-05T05:46:16.772Z,7.30
2017-11-05T05:48:45.064Z,7.40
2017-11-05T05:51:12.614Z,7.40
2017-11-05T05:53:40.142Z,7.40
2017-11-05T05:56:07.689Z,7.50
2017-11-05T05:58:35.220Z,7.60
2017-11-05T06:01:02.768Z,7.50
2017-11-05T06:03:30.300Z,7.50
2017-11-05T06:05:58.616Z,7.50
2017-11-05T06:08:26.172Z,7.50
2017-11-05T06:10:53.727Z,7.50
2017-11-05T06:13:21.254Z,7.50
2017-11-05T06:15:48.796Z,7.40
2017-11-05T06:18:16.326Z,7.50
2017-11-05T06:20:43.872Z,7.40
2017-11-05T06:23:12.162Z,7.40
2017-11-05T06:25:39.707Z,7.40
2017-11-05T06:28:08.006Z,7.40
2017-11-05T06:30:35.557Z,7.40
2017-11-05T06:33:03.936Z,7.40
2017-11-05T06:35:32.249Z,7.50
2017-11-05T06:37:59.787Z,7.40
2017-11-05T06:40:27.336Z,7.50
2017-11-05T06:42:55.632Z,7.50
2017-11-05T06:45:23.942Z,7.40
2017-11-05T06:47:51.467Z,7.40
2017-11-05T06:50:19.787Z,7.40
2017-11-05T06:52:47.322Z,7.50
2017-11-05T06:55:15.640Z,7.50
2017-11-05T06:57:43.178Z,7.40
2017-11-05T07:00:10.732Z,7.50
2017-11-05T07:02:38.261Z,7.50
2017-11-05T07:05:05.827Z,7.50
2017-11-05T07:07:34.125Z,7.50
2017-11-05T07:10:01.658Z,7.50
2017-11-05T07:12:29.203Z,7.60
2017-11-05T07:14:56.732Z,7.60
2017-11-05T07:17:24.281Z,7.60
2017-11-05T07:19:51.806Z,7.70
2017-11-05T07:22:19.356Z,7.70
2017-11-05T07:24:46.889Z,7.70
2017-11-05T07:27:14.447Z,7.70
2017-11-05T07:29:41.979Z,7.70
2017-11-05T07:32:10.292Z,7.70
2017-11-05T07:34:37.815Z,7.70
2017-11-05T07:37:06.132Z,7.70
2017-11-05T07:39:33.651Z,7.60
2017-11-05T07:42:01.200Z,7.60
2017-11-05T07:44:28.731Z,7.60
2017-11-05T07:46:56.278Z,7.70
2017-11-05T07:49:23.803Z,7.70
2017-11-05T07:51:51.356Z,7.70
2017-11-05T07:54:18.890Z,7.70
2017-11-05T07:56:46.435Z,7.80
2017-11-05T07:59:13.966Z,7.80
2017-11-05T08:01:41.506Z,7.80
2017-11-05T08:04:09.040Z,7.90
2017-11-05T08:06:36.586Z,7.90
2017-11-05T08:09:04.165Z,7.90
2017-11-05T08:11:31.715Z,8.00
2017-11-05T08:13:59.243Z,8.10
2017-11-05T08:16:27.564Z,8.10
2017-11-05T08:18:55.096Z,8.10
2017-11-05T08:21:23.407Z,8.20
2017-11-05T08:23:50.934Z,8.20
2017-11-05T08:26:19.243Z,8.30
2017-11-05T08:28:46.772Z,8.20
2017-11-05T08:31:15.087Z,8.40
2017-11-05T08:33:42.614Z,8.40
2017-11-05T08:36:10.976Z,8.30
2017-11-05T08:38:38.505Z,8.30
2017-11-05T08:41:06.050Z,8.40
2017-11-05T08:43:33.583Z,8.40
2017-11-05T08:46:01.914Z,8.40
2017-11-05T08:48:29.478Z,8.40
2017-11-05T08:50:57.037Z,8.50
2017-11-05T08:53:24.559Z,8.50
2017-11-05T08:55:52.864Z,8.50
2017-11-05T08:58:20.407Z,8.50
2017-11-05T09:00:48.719Z,8.50
2017-11-05T09:03:16.239Z,8.50
2017-11-05T09:05:44.552Z,8.50
2017-11-05T09:08:12.093Z,8.50
2017-11-05T09:10:39.644Z,8.60
2017-11-05T09:13:07.983Z,8.70
2017-11-05T09:15:35.520Z,8.70
2017-11-05T09:18:03.992Z,8.70
2017-11-05T09:20:31.524Z,8.80
2017-11-05T09:22:59.835Z,8.90
2017-11-05T09:25:27.358Z,8.80
2017-11-05T09:27:55.665Z,8.90
2017-11-05T09:30:23.195Z,8.90
2017-11-05T09:32:51.507Z,9.00
2017-11-05T09:35:19.032Z,9.00
2017-11-05T09:37:47.347Z,9.10
2017-11-05T09:40:14.879Z,9.10
2017-11-05T09:42:43.189Z,9.20
2017-11-05T09:45:10.710Z,9.20
2017-11-05T09:47:39.023Z,9.30
2017-11-05T09:50:06.616Z,9.30
2017-11-05T09:52:34.159Z,9.30
2017-11-05T09:55:01.727Z,9.30
2017-11-05T09:57:29.303Z,9.30
2017-11-05T09:59:56.844Z,9.30
2017-11-05T10:02:24.395Z,9.40
2017-11-05T10:04:51.916Z,9.30
2017-11-05T10:07:20.232Z,9.40
2017-11-05T10:09:47.762Z,9.40
2017-11-05T10:12:16.070Z,9.40
2017-11-05T10:14:43.594Z,9.40
2017-11-05T10:17:11.911Z,9.50
2017-11-05T10:19:39.436Z,9.50
2017-11-05T10:22:07.747Z,9.60
2017-11-05T10:24:35.271Z,9.60
2017-11-05T10:27:02.827Z,9.60
2017-11-05T10:29:30.355Z,9.60
2017-11-05T10:31:57.894Z,9.60
2017-11-05T10:34:25.410Z,9.60
2017-11-05T10:36:53.723Z,9.60
2017-11-05T10:39:22.076Z,9.60
2017-11-05T10:41:50.387Z,9.50
2017-11-05T10:44:17.915Z,9.50
2017-11-05T10:46:46.223Z,9.30
2017-11-05T10:49:13.752Z,9.20
2017-11-05T10:51:42.066Z,9.20
2017-11-05T10:54:09.607Z,9.10
2017-11-05T10:56:37.142Z,9.10
2017-11-05T10:59:04.668Z,9.10
2017-11-05T11:01:32.213Z,9.20
2017-11-05T11:03:59.739Z,9.20
2017-11-05T11:06:28.042Z,9.30
2017-11-05T11:08:55.576Z,9.30
2017-11-05T11:11:23.887Z,9.40
2017-11-05T11:13:51.424Z,9.40
2017-11-05T11:16:19.735Z,9.40
2017-11-05T11:18:47.263Z,9.40
2017-11-05T11:21:15.555Z,9.40
2017-11-05T11:23:43.108Z,9.30
2017-11-05T11:26:10.631Z,9.30
2017-11-05T11:28:38.180Z,9.30
2017-11-05T11:31:05.704Z,9.20
2017-11-05T11:33:33.253Z,9.20
2017-11-05T11:36:00.778Z,9.10
2017-11-05T11:38:28.326Z,9.20
2017-11-05T11:40:55.878Z,9.10
2017-11-05T11:43:23.426Z,9.10
2017-11-05T11:45:50.948Z,9.10
2017-11-05T11:48:18.502Z,9.10
2017-11-05T11:50:46.789Z,9.00
2017-11-05T11:53:14.332Z,9.00
2017-11-05T11:55:42.615Z,9.00
2017-11-05T11:58:10.918Z,8.90
2017-11-05T12:00:38.439Z,8.90
2017-11-05T12:03:05.987Z,8.90
2017-11-05T12:05:33.541Z,8.90
2017-11-05T12:08:01.087Z,8.90
2017-11-05T12:10:28.608Z,8.90
2017-11-05T12:12:56.157Z,9.00
2017-11-05T12:15:24.448Z,9.00
2017-11-05T12:17:51.996Z,9.00
2017-11-05T12:20:20.288Z,9.00
2017-11-05T12:22:47.816Z,9.00
2017-11-05T12:25:16.115Z,8.90
2017-11-05T12:27:44.423Z,8.90
2017-11-05T12:30:11.946Z,8.90
2017-11-05T12:32:40.250Z,8.80
2017-11-05T12:35:07.771Z,8.80
2017-11-05T12:37:35.312Z,8.80
2017-11-05T12:40:02.835Z,8.80
2017-11-05T12:42:30.382Z,8.80
2017-11-05T12:44:57.909Z,8.80
2017-11-05T12:47:25.463Z,8.80
2017-11-05T12:49:52.977Z,8.70
2017-11-05T12:52:20.520Z,8.70
2017-11-05T12:54:48.812Z,8.70
2017-11-05T12:57:16.358Z,8.70
2017-11-05T12:59:44.644Z,8.70
2017-11-05T13:02:12.947Z,8.70
2017-11-05T13:04:40.472Z,8.70
2017-11-05T13:07:08.833Z,8.70
2017-11-05T13:09:36.359Z,8.70
2017-11-05T13:12:03.910Z,8.80
2017-11-05T13:14:31.432Z,8.80
2017-11-05T13:16:59.754Z,8.90
2017-11-05T13:19:27.272Z,8.90
2017-11-05T13:21:54.792Z,8.90
2017-11-05T13:24:22.386Z,8.90
2017-11-05T13:26:49.904Z,8.90
2017-11-05T13:29:17.438Z,9.00
2017-11-05T13:31:44.963Z,9.00
2017-11-05T13:34:12.498Z,9.00
2017-11-05T13:36:40.023Z,9.00
2017-11-05T13:39:07.563Z,9.00
2017-11-05T13:41:35.847Z,8.90
2017-11-05T13:44:04.159Z,8.90
2017-11-05T13:46:31.733Z,8.90
2017-11-05T13:48:59.272Z,8.90
2017-11-05T13:51:26.841Z,8.80
2017-11-05T13:53:54.380Z,8.80
2017-11-05T13:56:22.717Z,8.70
2017-11-05T13:58:50.262Z,8.70
2017-11-05T14:01:17.778Z,8.80
2017-11-05T14:03:46.079Z,8.80
2017-11-05T14:06:13.613Z,8.80
2017-11-05T14:08:41.914Z,8.80
2017-11-05T14:11:09.487Z,8.80
2017-11-05T14:13:37.024Z,8.80
2017-11-05T14:16:05.312Z,8.80
2017-11-05T14:18:32.856Z,8.80
2017-11-05T14:21:01.147Z,8.70
2017-11-05T14:23:28.702Z,8.70
2017-11-05T14:25:56.987Z,8.70
2017-11-05T14:28:24.540Z,8.70
2017-11-05T14:30:52.822Z,8.70
2017-11-05T14:33:20.410Z,8.70
2017-11-05T14:35:47.932Z,8.60
2017-11-05T14:38:16.248Z,8.60
2017-11-05T14:40:43.766Z,8.60
2017-11-05T14:43:12.071Z,8.60
2017-11-05T14:45:39.615Z,8.60
2017-11-05T14:48:07.211Z,8.50
2017-11-05T14:50:34.787Z,8.50
2017-11-05T14:53:02.322Z,8.40
2017-11-05T14:55:29.842Z,8.30
2017-11-05T14:57:57.434Z,8.20
2017-11-05T15:00:24.951Z,8.10
2017-11-05T15:02:52.498Z,8.10
2017-11-05T15:05:20.019Z,8.10
2017-11-05T15:07:47.559Z,8.10
2017-11-05T15:10:15.847Z,8.00
2017-11-05T15:12:43.387Z,8.00
2017-11-05T15:15:11.675Z,7.90
2017-11-05T15:17:40.068Z,7.80
2017-11-05T15:20:08.402Z,7.80
2017-11-05T15:22:35.969Z,7.70
2017-11-05T15:25:03.493Z,7.70
2017-11-05T15:27:31.019Z,7.70
2017-11-05T15:29:59.323Z,7.60
2017-11-05T15:32:26.846Z,7.60
2017-11-05T15:34:54.383Z,7.50
2017-11-05T15:37:21.959Z,7.60
2017-11-05T15:39:49.507Z,7.60
2017-11-05T15:42:17.034Z,7.60
2017-11-05T15:44:44.580Z,7.60
2017-11-05T15:47:12.100Z,7.50
2017-11-05T15:49:39.644Z,7.50
2017-11-05T15:52:07.162Z,7.50
2017-11-05T15:54:35.479Z,7.40
2017-11-05T15:57:03.050Z,7.40
2017-11-05T15:59:33.291Z,7.40
2017-11-05T16:02:00.812Z,7.40
2017-11-05T16:04:28.346Z,7.30
2017-11-05T16:06:56.635Z,7.30
2017-11-05T16:09:24.171Z,7.30
2017-11-05T16:11:51.687Z,7.30
2017-11-05T16:14:19.219Z,7.30
2017-11-05T16:16:46.796Z,7.30
2017-11-05T16:19:14.341Z,7.30
2017-11-05T16:21:41.912Z,7.30
2017-11-05T16:24:09.499Z,7.30
2017-11-05T16:26:37.015Z,7.30
2017-11-05T16:29:05.325Z,7.20
2017-11-05T16:31:32.842Z,7.20
2017-11-05T16:34:01.144Z,7.10
2017-11-05T16:36:28.669Z,7.10
2017-11-05T16:38:56.270Z,7.10
2017-11-05T16:41:23.851Z,7.10
2017-11-05T16:43:51.447Z,7.10
2017-11-05T16:46:19.016Z,7.10
2017-11-05T16:48:46.555Z,7.00
2017-11-05T16:51:14.121Z,7.00
2017-11-05T16:53:41.676Z,7.00
2017-11-05T16:56:09.204Z,7.00
2017-11-05T16:58:36.742Z,7.10
2017-11-05T17:01:05.079Z,7.00
2017-11-05T17:03:32.673Z,7.00
2017-11-05T17:06:00.196Z,7.00
2017-11-05T17:08:28.526Z,6.90
2017-11-05T17:10:56.860Z,6.90
2017-11-05T17:13:24.399Z,6.90
2017-11-05T17:15:51.919Z,6.90
2017-11-05T17:18:20.323Z,6.90
2017-11-05T17:20:47.835Z,6.80
2017-11-05T17:23:15.385Z,6.90
2017-11-05T17:25:42.970Z,6.80
2017-11-05T17:28:10.496Z,6.80
2017-11-05T17:30:38.027Z,6.80
2017-11-05T17:33:05.547Z,6.80
2017-11-05T17:35:33.231Z,6.80
2017-11-05T17:38:00.771Z,6.70
2017-11-05T17:40:28.321Z,6.70
2017-11-05T17:42:55.843Z,6.70
2017-11-05T17:45:23.627Z,6.70
2017-11-05T17:47:51.151Z,6.70
2017-11-05T17:50:18.754Z,6.60
2017-11-05T17:52:46.321Z,6.60
2017-11-05T17:55:13.931Z,6.60
2017-11-05T17:57:42.221Z,6.50
2017-11-05T18:00:09.767Z,6.50
2017-11-05T18:02:38.051Z,6.50
2017-11-05T18:05:06.362Z,6.50
2017-11-05T18:07:33.887Z,6.40
2017-11-05T18:10:02.238Z,6.40
2017-11-05T18:12:29.762Z,6.40
2017-11-05T18:14:57.361Z,6.40
2017-11-05T18:17:24.887Z,6.40
2017-11-05T18:19:52.476Z,6.40
2017-11-05T18:22:20.047Z,6.30
2017-11-05T18:24:47.583Z,6.30
2017-11-05T18:27:15.154Z,6.30
2017-11-05T18:29:42.754Z,6.30
2017-11-05T18:32:11.049Z,6.30
2017-11-05T18:34:38.647Z,6.20
2017-11-05T18:37:06.175Z,6.30
2017-11-05T18:39:33.720Z,6.30
2017-11-05T18:42:02.016Z,6.40
2017-11-05T18:44:29.573Z,6.30
2017-11-05T18:46:57.094Z,6.40
2017-11-05T18:49:24.642Z,6.40
2017-11-05T18:51:52.210Z,6.50
2017-11-05T18:54:19.803Z,6.50
2017-11-05T18:56:48.096Z,6.60
2017-11-05T18:59:15.643Z,6.60
2017-11-05T19:01:43.927Z,6.60
2017-11-05T19:04:12.286Z,6.60
2017-11-05T19:06:39.808Z,6.60
2017-11-05T19:09:07.343Z,6.60
2017-11-05T19:11:34.862Z,6.60
2017-11-05T19:14:02.442Z,6.70
2017-11-05T19:16:30.801Z,6.70
2017-11-05T19:18:58.371Z,6.60
2017-11-05T19:21:25.915Z,6.60
2017-11-05T19:23:53.430Z,6.60
2017-11-05T19:26:21.022Z,6.60
2017-11-05T19:28:48.551Z,6.60
2017-11-05T19:31:16.855Z,6.50
2017-11-05T19:33:44.447Z,6.50
2017-11-05T19:36:11.983Z,6.50
2017-11-05T19:38:39.510Z,6.40
2017-11-05T19:41:07.869Z,6.40
2017-11-05T19:43:35.395Z,6.40
2017-11-05T19:46:02.995Z,6.40
2017-11-05T19:48:30.525Z,6.30
2017-11-05T19:50:58.131Z,6.30
2017-11-05T19:53:25.715Z,6.20
2017-11-05T19:55:54.079Z,6.10
2017-11-05T19:58:21.663Z,6.10
2017-11-05T20:00:50.027Z,6.10
2017-11-05T20:03:17.555Z,6.10
2017-11-05T20:05:45.107Z,6.10
2017-11-05T20:08:12.682Z,6.00
2017-11-05T20:10:40.259Z,6.00
2017-11-05T20:13:07.863Z,6.00
2017-11-05T20:15:35.443Z,6.00
2017-11-05T20:18:03.760Z,6.00
2017-11-05T20:20:31.330Z,6.00
2017-11-05T20:22:58.925Z,6.00
2017-11-05T20:25:26.503Z,6.00
2017-11-05T20:27:54.107Z,6.00
2017-11-05T20:30:21.634Z,6.00
2017-11-05T20:32:49.179Z,6.00
2017-11-05T20:35:16.753Z,6.00
2017-11-05T20:37:44.308Z,6.00
2017-11-05T20:40:11.894Z,6.00
2017-11-05T20:42:39.441Z,6.10
2017-11-05T20:45:07.028Z,6.10
2017-11-05T20:47:34.626Z,6.10
2017-11-05T20:50:02.146Z,6.10
2017-11-05T20:52:29.688Z,6.10
2017-11-05T20:54:57.218Z,6.10
2017-11-05T20:57:24.821Z,6.00
2017-11-05T20:59:53.176Z,6.00
2017-11-05T21:02:20.723Z,6.00
2017-11-05T21:04:49.066Z,6.00
2017-11-05T21:07:16.707Z,6.00
2017-11-05T21:09:44.235Z,5.90
2017-11-05T21:12:12.594Z,5.90
2017-11-05T21:14:40.179Z,5.90
2017-11-05T21:17:08.547Z,5.90
2017-11-05T21:19:36.123Z,5.90
2017-11-05T21:22:04.436Z,5.90
2017-11-05T21:24:32.016Z,5.90
2017-11-05T21:26:59.540Z,5.90
2017-11-05T21:29:27.856Z,5.90
2017-11-05T21:31:55.379Z,5.90
2017-11-05T21:34:23.690Z,5.80
2017-11-05T21:36:51.267Z,5.80
2017-11-05T21:39:18.814Z,5.80
2017-11-05T21:41:46.396Z,5.80
2017-11-05T21:44:13.995Z,5.80
2017-11-05T21:46:41.571Z,5.80
2017-11-05T21:49:09.177Z,5.80
2017-11-05T21:51:36.711Z,5.70
2017-11-05T21:54:05.080Z,5.70
2017-11-05T21:56:32.608Z,5.70
2017-11-05T21:59:00.159Z,5.60
2017-11-05T22:01:27.696Z,5.60
2017-11-05T22:03:55.303Z,5.60
2017-11-05T22:06:22.836Z,5.60
2017-11-05T22:08:50.378Z,5.60
2017-11-05T22:11:18.666Z,5.70
2017-11-05T22:13:47.027Z,5.70
2017-11-05T22:16:14.608Z,5.70
2017-11-05T22:18:42.976Z,5.70
2017-11-05T22:21:10.559Z,5.70
2017-11-05T22:23:38.873Z,5.80
2017-11-05T22:26:06.398Z,5.70
2017-11-05T22:28:33.948Z,5.70
2017-11-05T22:31:01.481Z,5.70
2017-11-05T22:33:29.091Z,5.70
2017-11-05T22:35:56.621Z,5.70
2017-11-05T22:38:24.165Z,5.70
2017-11-05T22:40:51.692Z,5.70
2017-11-05T22:43:19.236Z,5.70
2017-11-05T22:45:46.761Z,5.70
2017-11-05T22:48:14.306Z,5.70
2017-11-05T22:50:42.604Z,5.80
2017-11-05T22:53:10.155Z,5.70
2017-11-05T22:55:38.447Z,5.80
2017-11-05T22:58:05.995Z,5.80
2017-11-05T23:00:34.283Z,5.80
2017-11-05T23:03:02.600Z,5.80
2017-11-05T23:05:30.131Z,5.80
2017-11-05T23:07:57.678Z,5.80
2017-11-05T23:10:25.198Z,5.80
2017-11-05T23:12:52.752Z,5.80
2017-11-05T23:15:20.288Z,5.80
2017-11-05T23:17:47.822Z,5.80
2017-11-05T23:20:15.360Z,5.80
2017-11-05T23:22:42.904Z,5.80
2017-11-05T23:25:10.423Z,5.90
2017-11-05T23:27:37.971Z,5.90
2017-11-05T23:30:05.507Z,5.80
2017-11-05T23:32:33.030Z,5.80
2017-11-05T23:35:01.340Z,5.90
2017-11-05T23:37:28.868Z,5.80
2017-11-05T23:39:56.431Z,5.90
2017-11-05T23:42:23.960Z,5.90
2017-11-05T23:44:51.503Z,5.90
2017-11-05T23:47:19.030Z,5.90
2017-11-05T23:49:47.348Z,5.90
2017-11-05T23:52:14.871Z,5.90
2017-11-05T23:54:42.415Z,5.90
2017-11-05T23:57:09.943Z,5.90
2017-11-05T23:59:37.497Z,5.90
